sensor_id;sensor_type;location;lat;lon;timestamp;P1;durP1;ratioP1;P2;durP2;ratioP2
43226;SDS011;28839;52.404;9.808;2022-11-14T00:03:03;78.95;;;38.20;;
43226;SDS011;28839;52.404;9.808;2022-11-14T00:09:59;72.78;;;38.58;;
43226;SDS011;28839;52.404;9.808;2022-11-14T00:16:54;74.70;;;36.65;;
43226;SDS011;28839;52.404;9.808;2022-11-14T00:23:48;69.05;;;33.97;;
43226;SDS011;28839;52.404;9.808;2022-11-14T00:30:44;66.47;;;35.42;;
43226;SDS011;28839;52.404;9.808;2022-11-14T00:37:40;101.22;;;51.00;;
43226;SDS011;28839;52.404;9.808;2022-11-14T00:44:34;114.82;;;57.95;;
43226;SDS011;28839;52.404;9.808;2022-11-14T00:51:28;88.87;;;43.08;;
43226;SDS011;28839;52.404;9.808;2022-11-14T00:58:23;64.25;;;31.90;;
43226;SDS011;28839;52.404;9.808;2022-11-14T01:05:17;78.18;;;40.38;;
43226;SDS011;28839;52.404;9.808;2022-11-14T01:12:11;96.60;;;43.35;;
43226;SDS011;28839;52.404;9.808;2022-11-14T01:19:06;80.68;;;39.63;;
43226;SDS011;28839;52.404;9.808;2022-11-14T01:26:00;75.25;;;39.13;;
43226;SDS011;28839;52.404;9.808;2022-11-14T01:32:55;72.85;;;36.45;;
43226;SDS011;28839;52.404;9.808;2022-11-14T01:39:51;70.03;;;36.55;;
43226;SDS011;28839;52.404;9.808;2022-11-14T01:46:45;73.12;;;36.42;;
43226;SDS011;28839;52.404;9.808;2022-11-14T01:53:42;74.40;;;38.53;;
43226;SDS011;28839;52.404;9.808;2022-11-14T02:00:39;77.30;;;40.60;;
43226;SDS011;28839;52.404;9.808;2022-11-14T02:07:35;75.47;;;39.45;;
43226;SDS011;28839;52.404;9.808;2022-11-14T02:14:31;75.45;;;38.20;;
43226;SDS011;28839;52.404;9.808;2022-11-14T02:21:28;74.30;;;39.53;;
43226;SDS011;28839;52.404;9.808;2022-11-14T02:28:22;74.15;;;37.22;;
43226;SDS011;28839;52.404;9.808;2022-11-14T02:35:16;80.13;;;39.20;;
43226;SDS011;28839;52.404;9.808;2022-11-14T02:42:11;76.03;;;38.43;;
43226;SDS011;28839;52.404;9.808;2022-11-14T02:49:05;70.62;;;38.67;;
43226;SDS011;28839;52.404;9.808;2022-11-14T02:55:59;70.05;;;37.30;;
43226;SDS011;28839;52.404;9.808;2022-11-14T03:02:54;75.62;;;40.03;;
43226;SDS011;28839;52.404;9.808;2022-11-14T03:09:48;73.75;;;40.60;;
43226;SDS011;28839;52.404;9.808;2022-11-14T03:16:42;69.93;;;37.08;;
43226;SDS011;28839;52.404;9.808;2022-11-14T03:23:37;75.20;;;41.53;;
43226;SDS011;28839;52.404;9.808;2022-11-14T03:30:31;75.97;;;38.75;;
43226;SDS011;28839;52.404;9.808;2022-11-14T03:37:25;83.05;;;40.85;;
43226;SDS011;28839;52.404;9.808;2022-11-14T03:44:20;77.55;;;38.38;;
43226;SDS011;28839;52.404;9.808;2022-11-14T03:51:14;78.97;;;39.92;;
43226;SDS011;28839;52.404;9.808;2022-11-14T03:58:08;79.85;;;38.05;;
43226;SDS011;28839;52.404;9.808;2022-11-14T04:05:03;72.57;;;36.33;;
43226;SDS011;28839;52.404;9.808;2022-11-14T04:11:58;69.95;;;35.88;;
43226;SDS011;28839;52.404;9.808;2022-11-14T04:18:52;75.82;;;37.25;;
43226;SDS011;28839;52.404;9.808;2022-11-14T04:25:47;75.05;;;37.13;;
43226;SDS011;28839;52.404;9.808;2022-11-14T04:32:41;74.95;;;38.00;;
43226;SDS011;28839;52.404;9.808;2022-11-14T04:39:39;81.63;;;39.55;;
43226;SDS011;28839;52.404;9.808;2022-11-14T04:46:34;86.07;;;40.28;;
43226;SDS011;28839;52.404;9.808;2022-11-14T04:53:28;85.38;;;39.80;;
43226;SDS011;28839;52.404;9.808;2022-11-14T05:00:21;86.25;;;40.72;;
43226;SDS011;28839;52.404;9.808;2022-11-14T05:07:17;68.43;;;32.77;;
43226;SDS011;28839;52.404;9.808;2022-11-14T05:14:11;77.87;;;37.80;;
43226;SDS011;28839;52.404;9.808;2022-11-14T05:21:05;84.95;;;41.60;;
43226;SDS011;28839;52.404;9.808;2022-11-14T05:28:00;86.20;;;41.65;;
43226;SDS011;28839;52.404;9.808;2022-11-14T05:34:54;90.38;;;42.33;;
43226;SDS011;28839;52.404;9.808;2022-11-14T05:41:48;71.00;;;36.13;;
43226;SDS011;28839;52.404;9.808;2022-11-14T05:48:43;91.30;;;37.78;;
43226;SDS011;28839;52.404;9.808;2022-11-14T05:55:37;77.87;;;38.85;;
43226;SDS011;28839;52.404;9.808;2022-11-14T06:02:31;79.85;;;37.42;;
43226;SDS011;28839;52.404;9.808;2022-11-14T06:09:26;80.55;;;37.88;;
43226;SDS011;28839;52.404;9.808;2022-11-14T06:16:20;73.20;;;34.15;;
43226;SDS011;28839;52.404;9.808;2022-11-14T06:23:14;68.47;;;30.70;;
43226;SDS011;28839;52.404;9.808;2022-11-14T06:30:09;74.78;;;37.17;;
43226;SDS011;28839;52.404;9.808;2022-11-14T06:37:04;79.07;;;39.38;;
43226;SDS011;28839;52.404;9.808;2022-11-14T06:43:58;76.45;;;37.47;;
43226;SDS011;28839;52.404;9.808;2022-11-14T06:50:53;81.30;;;40.30;;
43226;SDS011;28839;52.404;9.808;2022-11-14T06:57:51;80.75;;;37.28;;
43226;SDS011;28839;52.404;9.808;2022-11-14T07:04:46;81.20;;;38.08;;
43226;SDS011;28839;52.404;9.808;2022-11-14T07:11:41;77.75;;;37.70;;
43226;SDS011;28839;52.404;9.808;2022-11-14T07:18:37;78.32;;;36.03;;
43226;SDS011;28839;52.404;9.808;2022-11-14T07:25:31;82.22;;;36.15;;
43226;SDS011;28839;52.404;9.808;2022-11-14T07:32:27;80.15;;;37.67;;
43226;SDS011;28839;52.404;9.808;2022-11-14T07:39:21;88.18;;;38.08;;
43226;SDS011;28839;52.404;9.808;2022-11-14T07:46:15;91.85;;;42.67;;
43226;SDS011;28839;52.404;9.808;2022-11-14T07:53:12;87.95;;;38.45;;
43226;SDS011;28839;52.404;9.808;2022-11-14T08:00:06;93.15;;;41.85;;
43226;SDS011;28839;52.404;9.808;2022-11-14T08:07:01;91.85;;;42.08;;
43226;SDS011;28839;52.404;9.808;2022-11-14T08:13:57;88.80;;;37.35;;
43226;SDS011;28839;52.404;9.808;2022-11-14T08:20:51;89.78;;;37.40;;
43226;SDS011;28839;52.404;9.808;2022-11-14T08:27:45;85.60;;;38.47;;
43226;SDS011;28839;52.404;9.808;2022-11-14T08:34:40;84.78;;;39.13;;
43226;SDS011;28839;52.404;9.808;2022-11-14T08:41:34;84.55;;;39.28;;
43226;SDS011;28839;52.404;9.808;2022-11-14T08:48:28;78.70;;;35.05;;
43226;SDS011;28839;52.404;9.808;2022-11-14T08:55:23;77.10;;;33.97;;
43226;SDS011;28839;52.404;9.808;2022-11-14T09:02:17;73.35;;;35.30;;
43226;SDS011;28839;52.404;9.808;2022-11-14T09:09:11;74.72;;;33.15;;
43226;SDS011;28839;52.404;9.808;2022-11-14T09:16:06;76.57;;;38.00;;
43226;SDS011;28839;52.404;9.808;2022-11-14T09:23:01;78.47;;;36.08;;
43226;SDS011;28839;52.404;9.808;2022-11-14T09:29:55;72.90;;;33.05;;
43226;SDS011;28839;52.404;9.808;2022-11-14T09:36:50;81.37;;;37.63;;
43226;SDS011;28839;52.404;9.808;2022-11-14T09:43:55;68.30;;;32.58;;
43226;SDS011;28839;52.404;9.808;2022-11-14T09:51:03;64.22;;;33.83;;
43226;SDS011;28839;52.404;9.808;2022-11-14T09:58:01;67.03;;;32.53;;
43226;SDS011;28839;52.404;9.808;2022-11-14T10:05:00;66.53;;;34.72;;
43226;SDS011;28839;52.404;9.808;2022-11-14T10:12:16;68.15;;;35.97;;
43226;SDS011;28839;52.404;9.808;2022-11-14T10:19:19;59.50;;;30.92;;
43226;SDS011;28839;52.404;9.808;2022-11-14T10:26:20;52.42;;;28.02;;
43226;SDS011;28839;52.404;9.808;2022-11-14T10:33:23;59.58;;;30.90;;
43226;SDS011;28839;52.404;9.808;2022-11-14T10:40:27;65.68;;;33.70;;
43226;SDS011;28839;52.404;9.808;2022-11-14T10:47:26;59.30;;;31.33;;
43226;SDS011;28839;52.404;9.808;2022-11-14T10:54:29;65.18;;;34.53;;
43226;SDS011;28839;52.404;9.808;2022-11-14T11:01:33;59.90;;;30.25;;
43226;SDS011;28839;52.404;9.808;2022-11-14T11:08:29;60.22;;;34.70;;
43226;SDS011;28839;52.404;9.808;2022-11-14T11:22:44;60.28;;;32.50;;
43226;SDS011;28839;52.404;9.808;2022-11-14T11:29:37;64.05;;;34.47;;
43226;SDS011;28839;52.404;9.808;2022-11-14T11:36:31;58.35;;;32.65;;
43226;SDS011;28839;52.404;9.808;2022-11-14T11:43:33;59.20;;;33.20;;
43226;SDS011;28839;52.404;9.808;2022-11-14T11:50:31;60.38;;;32.45;;
43226;SDS011;28839;52.404;9.808;2022-11-14T11:57:27;62.70;;;35.08;;
43226;SDS011;28839;52.404;9.808;2022-11-14T12:04:27;63.47;;;33.83;;
43226;SDS011;28839;52.404;9.808;2022-11-14T12:11:23;56.45;;;33.35;;
43226;SDS011;28839;52.404;9.808;2022-11-14T12:25:48;55.67;;;31.80;;
43226;SDS011;28839;52.404;9.808;2022-11-14T12:32:58;54.88;;;33.13;;
43226;SDS011;28839;52.404;9.808;2022-11-14T12:39:57;48.08;;;30.40;;
43226;SDS011;28839;52.404;9.808;2022-11-14T12:47:14;52.53;;;30.30;;
43226;SDS011;28839;52.404;9.808;2022-11-14T13:01:39;51.35;;;30.73;;
43226;SDS011;28839;52.404;9.808;2022-11-14T13:08:45;51.45;;;31.23;;
43226;SDS011;28839;52.404;9.808;2022-11-14T13:16:20;48.70;;;31.67;;
43226;SDS011;28839;52.404;9.808;2022-11-14T13:31:04;44.55;;;29.67;;
43226;SDS011;28839;52.404;9.808;2022-11-14T13:52:46;49.58;;;31.40;;
43226;SDS011;28839;52.404;9.808;2022-11-14T13:59:47;47.80;;;30.62;;
43226;SDS011;28839;52.404;9.808;2022-11-14T14:06:55;44.40;;;29.12;;
43226;SDS011;28839;52.404;9.808;2022-11-14T14:13:58;51.80;;;28.05;;
43226;SDS011;28839;52.404;9.808;2022-11-14T14:21:03;41.45;;;25.95;;
43226;SDS011;28839;52.404;9.808;2022-11-14T14:28:08;43.75;;;30.10;;
43226;SDS011;28839;52.404;9.808;2022-11-14T14:35:22;41.45;;;26.83;;
43226;SDS011;28839;52.404;9.808;2022-11-14T14:49:14;47.95;;;31.60;;
43226;SDS011;28839;52.404;9.808;2022-11-14T14:56:16;43.25;;;29.95;;
43226;SDS011;28839;52.404;9.808;2022-11-14T15:03:11;46.63;;;30.98;;
43226;SDS011;28839;52.404;9.808;2022-11-14T15:10:07;48.40;;;31.30;;
43226;SDS011;28839;52.404;9.808;2022-11-14T15:17:12;52.03;;;33.30;;
43226;SDS011;28839;52.404;9.808;2022-11-14T15:24:11;49.23;;;32.73;;
43226;SDS011;28839;52.404;9.808;2022-11-14T15:31:14;57.08;;;33.83;;
43226;SDS011;28839;52.404;9.808;2022-11-14T15:38:18;51.25;;;32.70;;
43226;SDS011;28839;52.404;9.808;2022-11-14T15:45:20;56.50;;;32.58;;
43226;SDS011;28839;52.404;9.808;2022-11-14T15:52:18;56.42;;;33.83;;
43226;SDS011;28839;52.404;9.808;2022-11-14T15:59:15;54.85;;;35.65;;
43226;SDS011;28839;52.404;9.808;2022-11-14T16:06:09;58.70;;;35.97;;
43226;SDS011;28839;52.404;9.808;2022-11-14T16:13:04;51.08;;;32.78;;
43226;SDS011;28839;52.404;9.808;2022-11-14T16:19:58;53.75;;;33.60;;
43226;SDS011;28839;52.404;9.808;2022-11-14T16:26:52;55.95;;;33.20;;
43226;SDS011;28839;52.404;9.808;2022-11-14T16:33:47;47.47;;;30.70;;
43226;SDS011;28839;52.404;9.808;2022-11-14T16:40:42;51.17;;;32.05;;
43226;SDS011;28839;52.404;9.808;2022-11-14T16:47:37;49.42;;;32.00;;
43226;SDS011;28839;52.404;9.808;2022-11-14T16:54:32;48.92;;;31.10;;
43226;SDS011;28839;52.404;9.808;2022-11-14T17:01:26;53.08;;;31.02;;
43226;SDS011;28839;52.404;9.808;2022-11-14T17:08:20;49.40;;;31.55;;
43226;SDS011;28839;52.404;9.808;2022-11-14T17:15:15;41.78;;;25.02;;
43226;SDS011;28839;52.404;9.808;2022-11-14T17:22:09;52.85;;;30.60;;
43226;SDS011;28839;52.404;9.808;2022-11-14T17:29:03;47.20;;;29.65;;
43226;SDS011;28839;52.404;9.808;2022-11-14T17:36:02;35.93;;;23.03;;
43226;SDS011;28839;52.404;9.808;2022-11-14T17:42:56;49.85;;;29.58;;
43226;SDS011;28839;52.404;9.808;2022-11-14T17:49:50;48.50;;;28.33;;
43226;SDS011;28839;52.404;9.808;2022-11-14T17:56:45;46.58;;;29.10;;
43226;SDS011;28839;52.404;9.808;2022-11-14T18:03:39;49.28;;;29.35;;
43226;SDS011;28839;52.404;9.808;2022-11-14T18:10:33;46.87;;;29.13;;
43226;SDS011;28839;52.404;9.808;2022-11-14T18:17:29;47.35;;;30.02;;
43226;SDS011;28839;52.404;9.808;2022-11-14T18:24:23;46.37;;;30.23;;
43226;SDS011;28839;52.404;9.808;2022-11-14T18:31:17;46.20;;;30.48;;
43226;SDS011;28839;52.404;9.808;2022-11-14T18:38:12;42.08;;;28.48;;
43226;SDS011;28839;52.404;9.808;2022-11-14T18:45:06;42.47;;;27.67;;
43226;SDS011;28839;52.404;9.808;2022-11-14T18:52:01;42.35;;;27.80;;
43226;SDS011;28839;52.404;9.808;2022-11-14T18:58:56;46.08;;;29.27;;
43226;SDS011;28839;52.404;9.808;2022-11-14T19:05:50;45.22;;;29.67;;
43226;SDS011;28839;52.404;9.808;2022-11-14T19:12:45;41.45;;;28.62;;
43226;SDS011;28839;52.404;9.808;2022-11-14T19:19:40;48.00;;;28.20;;
43226;SDS011;28839;52.404;9.808;2022-11-14T19:26:34;43.95;;;27.75;;
43226;SDS011;28839;52.404;9.808;2022-11-14T19:33:28;42.40;;;29.00;;
43226;SDS011;28839;52.404;9.808;2022-11-14T19:40:24;44.50;;;28.20;;
43226;SDS011;28839;52.404;9.808;2022-11-14T19:47:19;41.80;;;26.73;;
43226;SDS011;28839;52.404;9.808;2022-11-14T19:54:12;42.97;;;27.75;;
43226;SDS011;28839;52.404;9.808;2022-11-14T20:01:08;44.08;;;27.73;;
43226;SDS011;28839;52.404;9.808;2022-11-14T20:22:33;47.47;;;29.02;;
43226;SDS011;28839;52.404;9.808;2022-11-14T20:29:27;40.53;;;27.10;;
43226;SDS011;28839;52.404;9.808;2022-11-14T20:36:22;42.60;;;28.27;;
43226;SDS011;28839;52.404;9.808;2022-11-14T20:43:19;49.65;;;29.42;;
43226;SDS011;28839;52.404;9.808;2022-11-14T20:50:13;42.47;;;27.48;;
43226;SDS011;28839;52.404;9.808;2022-11-14T20:57:07;45.57;;;26.43;;
43226;SDS011;28839;52.404;9.808;2022-11-14T21:04:02;41.00;;;26.92;;
43226;SDS011;28839;52.404;9.808;2022-11-14T21:10:57;42.90;;;27.95;;
43226;SDS011;28839;52.404;9.808;2022-11-14T21:17:52;38.30;;;23.95;;
43226;SDS011;28839;52.404;9.808;2022-11-14T21:24:48;38.75;;;26.40;;
43226;SDS011;28839;52.404;9.808;2022-11-14T21:31:42;46.40;;;27.77;;
43226;SDS011;28839;52.404;9.808;2022-11-14T21:38:37;39.00;;;25.80;;
43226;SDS011;28839;52.404;9.808;2022-11-14T21:45:33;39.63;;;24.10;;
43226;SDS011;28839;52.404;9.808;2022-11-14T21:52:26;40.78;;;27.27;;
43226;SDS011;28839;52.404;9.808;2022-11-14T21:59:20;40.80;;;26.40;;
43226;SDS011;28839;52.404;9.808;2022-11-14T22:06:19;42.05;;;26.60;;
43226;SDS011;28839;52.404;9.808;2022-11-14T22:13:14;39.15;;;25.67;;
43226;SDS011;28839;52.404;9.808;2022-11-14T22:20:08;41.17;;;26.20;;
43226;SDS011;28839;52.404;9.808;2022-11-14T22:27:04;40.92;;;26.05;;
43226;SDS011;28839;52.404;9.808;2022-11-14T22:33:58;40.60;;;26.40;;
43226;SDS011;28839;52.404;9.808;2022-11-14T22:40:54;34.60;;;23.02;;
43226;SDS011;28839;52.404;9.808;2022-11-14T22:47:49;36.38;;;24.33;;
43226;SDS011;28839;52.404;9.808;2022-11-14T22:54:48;38.40;;;23.62;;
43226;SDS011;28839;52.404;9.808;2022-11-14T23:01:42;38.80;;;23.58;;
43226;SDS011;28839;52.404;9.808;2022-11-14T23:08:37;33.47;;;22.00;;
43226;SDS011;28839;52.404;9.808;2022-11-14T23:15:32;34.45;;;22.58;;
43226;SDS011;28839;52.404;9.808;2022-11-14T23:22:26;36.17;;;23.87;;
43226;SDS011;28839;52.404;9.808;2022-11-14T23:29:21;33.80;;;21.80;;
43226;SDS011;28839;52.404;9.808;2022-11-14T23:36:15;32.38;;;21.05;;
43226;SDS011;28839;52.404;9.808;2022-11-14T23:43:09;31.40;;;19.83;;
43226;SDS011;28839;52.404;9.808;2022-11-14T23:50:04;32.10;;;20.70;;
43226;SDS011;28839;52.404;9.808;2022-11-14T23:56:59;30.80;;;18.85;;
